createdAt,value
2022-08-02T00:02:26.325Z,18.67
2022-08-02T00:04:59.421Z,18.68
2022-08-02T00:07:38.986Z,18.67
2022-08-02T00:10:10.626Z,18.61
2022-08-02T00:12:43.950Z,18.43
2022-08-02T00:15:17.156Z,18.21
2022-08-02T00:17:50.238Z,18.09
2022-08-02T00:20:23.546Z,18.01
2022-08-02T00:22:56.847Z,17.97
2022-08-02T00:25:30.048Z,17.88
2022-08-02T00:28:03.349Z,17.81
2022-08-02T00:30:36.888Z,17.74
2022-08-02T00:33:10.117Z,17.74
2022-08-02T00:35:43.604Z,17.74
2022-08-02T00:38:17.434Z,17.61
2022-08-02T00:40:55.313Z,17.62
2022-08-02T00:43:26.549Z,17.56
2022-08-02T00:46:03.651Z,17.59
2022-08-02T00:48:34.793Z,17.58
2022-08-02T00:51:08.236Z,17.56
2022-08-02T00:53:42.068Z,17.49
2022-08-02T00:56:15.281Z,17.47
2022-08-02T00:58:48.480Z,17.44
2022-08-02T01:01:23.396Z,17.46
2022-08-02T01:03:56.846Z,17.47
2022-08-02T01:06:31.856Z,17.44
2022-08-02T01:09:06.037Z,17.43
2022-08-02T01:11:39.875Z,17.39
2022-08-02T01:14:15.002Z,17.33
2022-08-02T01:16:51.656Z,17.26
2022-08-02T01:19:34.706Z,17.22
2022-08-02T01:22:59.424Z,17.20
2022-08-02T01:25:18.875Z,17.16
2022-08-02T01:28:14.760Z,17.11
2022-08-02T01:30:51.884Z,17.05
2022-08-02T01:33:27.611Z,17.02
2022-08-02T01:36:03.212Z,16.99
2022-08-02T01:38:39.727Z,16.96
2022-08-02T01:41:16.382Z,16.92
2022-08-02T01:43:52.447Z,16.89
2022-08-02T01:46:27.431Z,16.83
2022-08-02T01:49:08.539Z,16.82
2022-08-02T01:52:00.320Z,16.88
2022-08-02T01:54:35.530Z,16.87
2022-08-02T01:57:11.757Z,16.94
2022-08-02T01:59:47.304Z,17.01
2022-08-02T02:02:23.467Z,17.13
2022-08-02T02:04:57.870Z,17.14
2022-08-02T02:07:33.492Z,17.16
2022-08-02T02:10:09.467Z,17.14
2022-08-02T02:12:44.374Z,17.11
2022-08-02T02:15:20.154Z,16.99
2022-08-02T02:18:12.584Z,16.90
2022-08-02T02:20:34.065Z,16.84
2022-08-02T02:23:08.069Z,16.82
2022-08-02T02:25:46.715Z,16.74
2022-08-02T02:28:22.303Z,16.65
2022-08-02T02:30:58.474Z,16.58
2022-08-02T02:33:35.038Z,16.49
2022-08-02T02:36:09.480Z,16.49
2022-08-02T02:38:44.140Z,16.49
2022-08-02T02:41:20.486Z,16.51
2022-08-02T02:43:55.167Z,16.51
2022-08-02T02:46:31.024Z,16.46
2022-08-02T02:49:04.801Z,16.44
2022-08-02T02:51:39.927Z,16.40
2022-08-02T02:54:30.875Z,16.40
2022-08-02T02:56:54.585Z,16.39
2022-08-02T02:59:28.891Z,16.50
2022-08-02T03:02:03.433Z,16.61
2022-08-02T03:04:55.922Z,16.66
2022-08-02T03:07:12.586Z,16.69
2022-08-02T03:09:50.683Z,16.73
2022-08-02T03:12:21.152Z,16.75
2022-08-02T03:14:55.844Z,16.82
2022-08-02T03:17:39.888Z,16.84
2022-08-02T03:20:16.475Z,16.88
2022-08-02T03:22:50.304Z,16.94
2022-08-02T03:25:23.470Z,17.03
2022-08-02T03:27:56.850Z,17.12
2022-08-02T03:30:30.245Z,17.17
2022-08-02T03:33:03.482Z,17.24
2022-08-02T03:35:37.490Z,17.25
2022-08-02T03:38:11.904Z,17.31
2022-08-02T03:40:46.506Z,17.36
2022-08-02T03:43:20.505Z,17.39
2022-08-02T03:45:54.327Z,17.50
2022-08-02T03:48:33.713Z,17.61
2022-08-02T03:51:04.181Z,17.70
2022-08-02T03:53:37.839Z,17.76
2022-08-02T03:56:12.319Z,17.84
2022-08-02T03:58:49.259Z,17.91
2022-08-02T04:01:21.580Z,17.98
2022-08-02T04:03:55.177Z,18.05
2022-08-02T04:06:28.449Z,18.11
2022-08-02T04:09:03.578Z,18.16
2022-08-02T04:11:38.132Z,18.25
2022-08-02T04:14:14.352Z,18.35
2022-08-02T04:16:49.837Z,18.48
2022-08-02T04:19:25.972Z,18.59
2022-08-02T04:22:02.262Z,18.67
2022-08-02T04:24:38.483Z,18.71
2022-08-02T04:27:51.219Z,18.82
2022-08-02T04:29:49.440Z,18.88
2022-08-02T04:32:23.456Z,18.98
2022-08-02T04:37:32.845Z,19.23
2022-08-02T04:40:08.983Z,19.34
2022-08-02T04:42:42.651Z,19.42
2022-08-02T04:45:17.089Z,19.48
2022-08-02T04:48:06.472Z,19.54
2022-08-02T04:50:35.537Z,19.64
2022-08-02T04:53:09.063Z,19.74
2022-08-02T04:55:42.567Z,19.83
2022-08-02T04:58:39.576Z,19.92
2022-08-02T05:00:52.290Z,20.04
2022-08-02T05:03:25.583Z,20.14
2022-08-02T05:05:58.672Z,20.35
2022-08-02T05:08:32.143Z,20.65
2022-08-02T05:11:05.293Z,20.90
2022-08-02T05:13:57.496Z,21.09
2022-08-02T05:16:13.346Z,21.25
2022-08-02T05:18:46.820Z,21.46
2022-08-02T05:21:20.678Z,21.71
2022-08-02T05:23:56.429Z,21.93
2022-08-02T05:26:29.643Z,22.17
2022-08-02T05:29:03.790Z,22.26
2022-08-02T05:31:36.779Z,22.38
2022-08-02T05:34:12.184Z,22.41
2022-08-02T05:36:45.111Z,22.57
2022-08-02T05:39:19.746Z,22.70
2022-08-02T05:41:52.834Z,22.91
2022-08-02T05:44:25.759Z,23.02
2022-08-02T05:47:01.024Z,23.28
2022-08-02T05:49:34.290Z,23.57
2022-08-02T05:52:11.335Z,23.91
2022-08-02T05:54:51.106Z,24.11
2022-08-02T05:57:30.386Z,23.82
2022-08-02T06:00:10.199Z,23.52
2022-08-02T06:02:56.582Z,23.39
2022-08-02T06:05:32.709Z,23.45
2022-08-02T06:08:09.446Z,23.55
2022-08-02T06:10:44.759Z,23.53
2022-08-02T06:13:18.201Z,23.35
2022-08-02T06:15:54.002Z,23.39
2022-08-02T06:18:28.849Z,23.73
2022-08-02T06:22:34.858Z,24.03
2022-08-02T06:23:42.510Z,24.11
2022-08-02T06:26:18.263Z,24.22
2022-08-02T06:28:53.537Z,24.35
2022-08-02T06:31:26.860Z,24.21
2022-08-02T06:34:00.280Z,24.12
2022-08-02T06:36:40.412Z,24.12
2022-08-02T06:39:17.932Z,24.19
2022-08-02T06:41:53.566Z,24.48
2022-08-02T06:44:53.083Z,24.80
2022-08-02T06:47:13.027Z,24.88
2022-08-02T06:49:51.963Z,24.86
2022-08-02T06:52:21.403Z,24.98
2022-08-02T06:54:54.372Z,24.89
2022-08-02T06:57:27.576Z,25.12
2022-08-02T07:00:02.976Z,25.50
2022-08-02T07:02:37.913Z,25.37
2022-08-02T07:05:12.163Z,25.43
2022-08-02T07:07:45.321Z,26.26
2022-08-02T07:10:18.757Z,27.02
2022-08-02T07:12:51.933Z,27.33
2022-08-02T07:15:25.262Z,27.64
2022-08-02T07:17:58.342Z,28.11
2022-08-02T07:20:34.641Z,29.40
2022-08-02T07:23:07.706Z,31.48
2022-08-02T07:26:03.078Z,32.29
2022-08-02T07:28:23.713Z,32.71
2022-08-02T07:30:52.704Z,33.93
2022-08-02T07:33:37.558Z,35.15
2022-08-02T07:36:04.817Z,35.41
2022-08-02T07:38:38.183Z,35.30
2022-08-02T07:41:11.214Z,35.03
2022-08-02T07:43:45.812Z,34.13
2022-08-02T07:46:18.816Z,34.10
2022-08-02T07:48:53.717Z,33.74
2022-08-02T07:51:26.909Z,33.99
2022-08-02T07:54:02.178Z,34.42
2022-08-02T07:56:35.047Z,34.37
2022-08-02T07:59:10.002Z,34.40
2022-08-02T08:01:46.154Z,35.80
2022-08-02T08:04:18.204Z,35.63
2022-08-02T08:06:54.204Z,35.74
2022-08-02T08:09:27.452Z,37.15
2022-08-02T08:12:00.443Z,38.16
2022-08-02T08:14:33.704Z,35.63
2022-08-02T08:17:07.557Z,32.87
2022-08-02T08:19:51.731Z,32.42
2022-08-02T08:22:15.825Z,33.40
2022-08-02T08:24:49.265Z,34.01
2022-08-02T08:27:23.683Z,34.30
2022-08-02T08:29:57.266Z,34.53
2022-08-02T08:32:30.439Z,35.82
2022-08-02T08:35:07.047Z,34.65
2022-08-02T08:37:41.141Z,34.13
2022-08-02T08:40:19.308Z,35.69
2022-08-02T08:42:52.519Z,35.03
2022-08-02T08:45:31.604Z,33.98
2022-08-02T08:48:09.430Z,35.41
2022-08-02T08:50:45.950Z,35.41
2022-08-02T08:53:20.516Z,33.90
2022-08-02T08:55:56.667Z,33.46
2022-08-02T08:58:29.980Z,32.76
2022-08-02T09:01:03.851Z,31.88
2022-08-02T09:03:37.297Z,30.92
2022-08-02T09:06:11.030Z,29.57
2022-08-02T09:08:44.502Z,28.89
2022-08-02T09:11:19.398Z,29.53
2022-08-02T09:13:55.093Z,30.37
2022-08-02T09:16:33.796Z,32.41
2022-08-02T09:19:21.416Z,33.81
2022-08-02T09:21:56.321Z,34.62
2022-08-02T09:24:34.305Z,34.78
2022-08-02T09:27:15.118Z,33.90
2022-08-02T09:30:12.599Z,32.80
2022-08-02T09:32:30.005Z,33.86
2022-08-02T09:35:09.895Z,36.99
2022-08-02T09:38:03.201Z,38.31
2022-08-02T09:40:39.851Z,35.42
2022-08-02T09:43:13.448Z,33.14
2022-08-02T09:45:49.036Z,33.83
2022-08-02T09:48:23.748Z,34.87
2022-08-02T09:50:58.929Z,35.63
2022-08-02T09:53:35.111Z,36.19
2022-08-02T09:56:35.053Z,35.01
2022-08-02T09:58:52.039Z,33.21
2022-08-02T10:01:37.439Z,31.94
2022-08-02T10:04:21.697Z,31.63
2022-08-02T10:06:52.498Z,33.59
2022-08-02T10:09:25.940Z,36.45
2022-08-02T10:12:01.249Z,36.65
2022-08-02T10:14:36.398Z,36.31
2022-08-02T10:17:10.426Z,35.56
2022-08-02T10:20:02.675Z,34.40
2022-08-02T10:22:24.397Z,32.67
2022-08-02T10:25:00.427Z,31.69
2022-08-02T10:27:55.471Z,31.25
2022-08-02T10:30:13.477Z,30.49
2022-08-02T10:32:51.735Z,30.02
2022-08-02T10:35:27.096Z,29.88
2022-08-02T10:38:03.957Z,29.73
2022-08-02T10:40:51.530Z,29.34
2022-08-02T10:46:42.296Z,29.62
2022-08-02T10:52:11.545Z,30.13
2022-08-02T10:55:00.995Z,30.27
2022-08-02T10:57:47.074Z,29.95
2022-08-02T11:00:33.265Z,30.07
2022-08-02T11:03:39.420Z,30.04
2022-08-02T11:06:25.198Z,31.06
2022-08-02T11:08:50.567Z,33.41
2022-08-02T11:11:54.096Z,33.65
2022-08-02T11:14:08.970Z,32.85
2022-08-02T11:17:20.793Z,33.27
2022-08-02T11:20:21.102Z,35.28
2022-08-02T11:22:58.481Z,35.12
2022-08-02T11:26:03.179Z,33.90
2022-08-02T11:28:16.342Z,33.32
2022-08-02T11:31:03.074Z,35.18
2022-08-02T11:33:40.445Z,36.42
2022-08-02T11:36:16.300Z,36.65
2022-08-02T11:38:49.690Z,35.21
2022-08-02T11:41:47.304Z,34.23
2022-08-02T11:43:58.771Z,33.32
2022-08-02T11:46:35.731Z,34.85
2022-08-02T11:49:21.276Z,35.52
2022-08-02T11:52:04.079Z,33.97
2022-08-02T11:54:44.122Z,33.83
2022-08-02T11:58:03.797Z,33.34
2022-08-02T12:00:20.087Z,33.11
2022-08-02T12:03:09.934Z,32.81
2022-08-02T12:06:06.561Z,32.22
2022-08-02T12:08:54.675Z,32.07
2022-08-02T12:11:22.825Z,32.31
2022-08-02T12:13:57.649Z,32.36
2022-08-02T12:16:55.355Z,31.74
2022-08-02T12:19:29.712Z,32.39
2022-08-02T12:22:17.507Z,35.51
2022-08-02T12:24:55.185Z,37.34
2022-08-02T12:27:38.565Z,38.25
2022-08-02T12:30:14.974Z,39.53
2022-08-02T12:32:49.693Z,40.16
2022-08-02T12:35:26.402Z,40.01
2022-08-02T12:38:11.588Z,38.66
2022-08-02T12:40:45.998Z,36.21
2022-08-02T12:43:24.800Z,34.34
2022-08-02T12:45:58.917Z,33.17
2022-08-02T12:48:40.371Z,33.01
2022-08-02T12:51:51.130Z,33.03
2022-08-02T12:54:17.694Z,32.53
2022-08-02T12:56:51.925Z,33.26
2022-08-02T13:02:25.740Z,33.16
2022-08-02T13:05:03.186Z,33.98
2022-08-02T13:07:36.358Z,33.68
2022-08-02T13:10:11.740Z,32.79
2022-08-02T13:12:45.376Z,32.74
2022-08-02T13:15:49.546Z,33.36
2022-08-02T13:17:54.656Z,33.87
2022-08-02T13:20:30.341Z,33.95
2022-08-02T13:23:05.597Z,35.61
2022-08-02T13:25:38.828Z,35.12
2022-08-02T13:28:12.042Z,33.49
2022-08-02T13:30:46.409Z,31.94
2022-08-02T13:33:21.482Z,31.38
2022-08-02T13:35:54.507Z,31.43
2022-08-02T13:38:28.191Z,31.63
2022-08-02T13:41:21.268Z,31.55
2022-08-02T13:43:59.463Z,31.12
2022-08-02T13:46:29.785Z,31.03
2022-08-02T13:49:03.171Z,33.01
2022-08-02T13:51:37.307Z,34.35
2022-08-02T13:54:10.986Z,34.60
2022-08-02T13:56:47.055Z,34.61
2022-08-02T13:59:54.448Z,34.22
2022-08-02T14:01:57.304Z,34.95
2022-08-02T14:04:30.912Z,34.30
2022-08-02T14:07:04.186Z,32.38
2022-08-02T14:09:40.513Z,31.34
2022-08-02T14:12:20.688Z,30.81
2022-08-02T14:14:54.035Z,31.17
2022-08-02T14:17:27.648Z,31.27
2022-08-02T14:20:00.754Z,31.22
2022-08-02T14:22:34.379Z,31.87
2022-08-02T14:25:09.665Z,33.64
2022-08-02T14:27:44.694Z,33.51
2022-08-02T14:30:17.946Z,32.24
2022-08-02T17:56:04.134Z,25.52
2022-08-02T17:58:37.457Z,25.47
2022-08-02T18:01:23.698Z,25.44
2022-08-02T18:03:49.214Z,25.38
2022-08-02T18:06:26.207Z,25.32
2022-08-02T18:08:59.837Z,25.29
2022-08-02T18:11:52.541Z,25.26
2022-08-02T18:14:09.306Z,25.22
2022-08-02T18:22:31.098Z,25.10
2022-08-02T18:25:09.323Z,25.01
2022-08-02T18:27:59.550Z,24.95
2022-08-02T18:30:44.510Z,24.89
2022-08-02T18:33:57.199Z,24.85
2022-08-02T18:35:59.949Z,24.79
2022-08-02T18:38:35.445Z,24.72
2022-08-02T18:44:03.974Z,24.62
2022-08-02T18:46:43.225Z,24.57
2022-08-02T18:49:19.768Z,24.51
2022-08-02T18:51:54.243Z,24.46
2022-08-02T18:54:39.063Z,24.42
2022-08-02T18:58:18.989Z,24.37
2022-08-02T19:02:49.570Z,24.36
2022-08-02T19:05:53.259Z,24.24
2022-08-02T19:10:57.335Z,24.07
2022-08-02T19:13:36.895Z,23.98
2022-08-02T19:16:10.365Z,23.90
2022-08-02T19:18:47.742Z,23.86
2022-08-02T19:22:18.266Z,23.83
2022-08-02T19:24:02.097Z,23.84
2022-08-02T19:26:42.083Z,23.81
2022-08-02T19:29:16.552Z,23.79
2022-08-02T19:32:03.839Z,23.76
2022-08-02T19:34:39.426Z,23.73
2022-08-02T19:37:17.595Z,23.68
2022-08-02T19:39:51.234Z,23.65
2022-08-02T19:42:24.930Z,23.60
2022-08-02T19:44:58.160Z,23.56
2022-08-02T19:47:38.535Z,23.51
2022-08-02T19:50:15.134Z,23.45
2022-08-02T19:52:52.909Z,23.39
2022-08-02T19:56:00.035Z,23.35
2022-08-02T19:58:03.437Z,23.31
2022-08-02T20:00:40.075Z,23.26
2022-08-02T20:03:15.879Z,23.22
2022-08-02T20:05:47.927Z,23.18
2022-08-02T20:08:31.685Z,23.15
2022-08-02T20:10:56.338Z,23.14
2022-08-02T20:13:34.743Z,23.12
2022-08-02T20:16:06.284Z,23.09
2022-08-02T20:18:40.428Z,23.04
2022-08-02T20:21:34.108Z,23.01
2022-08-02T20:23:49.201Z,22.98
